Aérodrome :
LOGIN :

S'inscrire | Disclaimer

   EN    FR    IT 

 










Légende :    VFR   VFR Marginal   IFR   IFR Intensif   IFR Très Intensif
Visi : 
Plafond : 
>= 8 km
>= 3000ft
5 à 8 km
1000 à 3000 ft
1500m à 5 km
500 à 1000 ft
800 à 1500m
200 à 500 ft
< 800m
< 200 ft
Symboles :   Orages  Brouillard  Fortes neiges  Fortes précipitations  Vent > 20 kt
SIGMETs :   Divers  Orages  Givrage  Turbulence  Onde Orograph.  Cendres Volcan.







- Altitude de l'aérodrome : 257 ft
- Code IATA : MAN
- Voir les cartes d'approche


EGCC - Manchester

DERNIER METAR :
  • 100750Z AUTO 25005KT 9999 BKN017 BKN042 05/04 Q1025 NOSIG

METARs EXPIRÉS :
  • 100720Z AUTO 26005KT 9999 SCT020 BKN043 05/04 Q1025
  • 100650Z AUTO 27004KT 9999 SCT046/// //////TCU 06/04 Q1024
  • 100620Z AUTO 27005KT 9999 BKN047 05/04 Q1024 NOSIG
  • 100550Z AUTO 26005KT 9999 FEW015 BKN044 05/04 Q1024
  • 100520Z AUTO 24004KT 9999 BKN011 06/05 Q1024 NOSIG

TAF TAF EGCC
Valide du 10 à 06h jusqu'au 11 à 12h UTC


100500Z 1006/1112 26005KT 9999 SCT030
TEMPO 1006/1012 7000 SHRA BKN010
TEMPO 1016/1106 8000
PROB30 1021/1103 4000 BR
BECMG 1103/1106 18010KT
PROB30
TEMPO 1103/1106 4000 -DZ BR BKN007
ATIS : +44 161 499 2324
Pas de NOTAMs connus pour ce terrain.



MET'MAP, la Météo Aéronautique d'un coup d'oeil ! - Copyright ORBIFLY Décembre 2007 - Disclaimer

ORBIFLY MET'MAP TEAM :

Programmation & Développement : Alexandra Zaïnal
Conception & Développement : Baudouin d'Aumeries
Co-Programmation & Développement : Marc-Olivier Méhu
Soutien technique & logistique : Manuel Goepfert

Contact : metmap@orbifly.com




SOURCES & CREDITS :

   NOAA